Terminal Aerodrome Forecast
Issued by NWS Shreveport, LA

Home | Current Version | Previous Version | Text Only | Print | Product List | Glossary On
Versions: 1 2 3 4 5 6 7 8 9 10 11 12 13
000
FTUS44 KSHV 291100
TAFSHV
TAF
KSHV 291127Z 2912/3012 16006KT P6SM BKN120 BKN250
     FM291500 16006KT P6SM SCT025 SCT130 BKN250
     FM291800 16008KT P6SM VCTS SCT050CB SCT130 BKN250
     FM300000 15006KT P6SM VCTS SCT050CB OVC120
      TEMPO 3009/3012 P6SM NSW BKN015=

USA.gov is the U.S. government's official web portal to all federal, state and local government web resources and services.